This is the latest recevied weather packets stored in our database for station/object KY4OP-13. If no packets are shown the sender has not sent any weather packets the latest 10 day(s).
| Time | Temp. | Humidity | Pressure | Rain* | Wind** | Luminosity | Snow |
|---|---|---|---|---|---|---|---|
| 1777991050 | 22.78° C | 52% | 1015.1 hPa | 0 mm | - | - | - |
| 1777990747 | 22.22° C | 51% | 1014.8 hPa | 0 mm | - | - | - |
| 1777990445 | 21.67° C | 51% | 1015 hPa | 0 mm | - | - | - |
| 1777989838 | 21.67° C | 51% | 1014.7 hPa | 0 mm | - | - | - |
| 1777989535 | 21.67° C | 54% | 1015 hPa | 0 mm | - | - | - |
| 1777989231 | 21.67° C | 52% | 1014.7 hPa | 0 mm | - | - | - |
| 1777988927 | 21.11° C | 58% | 1015 hPa | 0 mm | - | - | - |
| 1777988624 | 20.56° C | 59% | 1015 hPa | 0 mm | - | - | - |
| 1777988321 | 20.56° C | 58% | 1015 hPa | 0 mm | - | - | - |
| 1777988018 | 19.44° C | 62% | 1015 hPa | 0 mm | - | - | - |
| 1777987713 | 18.89° C | 61% | 1015 hPa | 0 mm | - | - | - |
| 1777987411 | 18.33° C | 64% | 1015.2 hPa | 0 mm | - | - | - |
| 1777987108 | 18.33° C | 62% | 1015.2 hPa | 0 mm | - | - | - |
| 1777986805 | 17.78° C | 64% | 1015.2 hPa | 0 mm | - | - | - |
| 1777986503 | 17.22° C | 64% | 1015.2 hPa | 0 mm | - | - | - |
| 1777986201 | 16.67° C | 65% | 1015.1 hPa | 0 mm | - | - | - |
| 1777985898 | 16.11° C | 64% | 1015.1 hPa | 0 mm | - | - | - |
| 1777985595 | 16.11° C | 66% | 1015.2 hPa | 0 mm | - | - | - |
| 1777985291 | 15.56° C | 67% | 1015.3 hPa | 0 mm | - | - | - |
| 1777984988 | 15.56° C | 68% | 1015.3 hPa | 0 mm | - | - | - |
| 1777984684 | 15° C | 69% | 1015.3 hPa | 0 mm | - | - | - |
| 1777984381 | 15° C | 70% | 1015.3 hPa | 0 mm | - | - | - |
| 1777984077 | 14.44° C | 72% | 1015.5 hPa | 0 mm | - | - | - |
| 1777983775 | 14.44° C | 71% | 1015.6 hPa | 0 mm | - | - | - |
| 1777983471 | 14.44° C | 74% | 1015.5 hPa | 0 mm | - | - | - |
* Rain latest hour (hover to see other rain measurements)
** Current wind speed in m/s (hover to see current wind gust speed)